Time;durP1;ratioP1;P1;durP2;ratioP2;P2;SDS_P1;SDS_P2;PMS_P1;PMS_P2;Temp;Humidity;BMP_temperature;BMP_pressure;BME280_temperature;BME280_humidity;BME280_pressure;Samples;Min_cycle;Max_cycle;Signal;HPM_P1;HPM_P2
2021/11/05 00:00:19;;;;;;;;;;;19.60;99.90;;;;;;5092345;28;20319;-76
2021/11/05 00:02:45;;;;;;;;;;;19.60;99.90;;;;;;5092344;28;19924;-76
2021/11/05 00:05:12;;;;;;;;;;;19.70;99.90;;;;;;5092789;28;20302;-76
2021/11/05 00:07:39;;;;;;;;;;;19.70;99.90;;;;;;5092406;28;20414;-76
2021/11/05 00:10:06;;;;;;;;;;;19.70;99.90;;;;;;5091648;28;19912;-75
2021/11/05 00:12:33;;;;;;;;;;;19.70;99.90;;;;;;5092640;28;20431;-76
2021/11/05 00:15:00;;;;;;;;;;;19.70;99.90;;;;;;5092493;28;19908;-76
2021/11/05 00:17:26;;;;;;;;;;;19.80;99.90;;;;;;5093537;28;19916;-75
2021/11/05 00:19:53;;;;;;;;;;;19.90;99.90;;;;;;5096984;28;20370;-76
2021/11/05 00:22:20;;;;;;;;;;;19.90;99.90;;;;;;5096331;28;19908;-76
2021/11/05 00:24:46;;;;;;;;;;;20.00;99.90;;;;;;5096404;28;19977;-76
2021/11/05 00:27:13;;;;;;;;;;;20.10;99.90;;;;;;5096262;28;19955;-76
2021/11/05 00:29:42;;;;;;;;;;;20.10;99.90;;;;;;5096301;28;19912;-76
2021/11/05 00:32:09;;;;;;;;;;;20.10;99.90;;;;;;5095831;28;19908;-76
2021/11/05 00:34:36;;;;;;;;;;;20.00;99.90;;;;;;5096278;28;19908;-76
2021/11/05 00:37:03;;;;;;;;;;;20.00;99.90;;;;;;5096881;28;19912;-76
2021/11/05 00:39:30;;;;;;;;;;;20.00;99.90;;;;;;5096304;28;19908;-76
2021/11/05 00:41:57;;;;;;;;;;;19.90;99.90;;;;;;5096362;28;19908;-76
2021/11/05 00:44:23;;;;;;;;;;;19.90;99.90;;;;;;5095834;28;19909;-76
2021/11/05 00:46:51;;;;;;;;;;;19.90;99.90;;;;;;5096120;28;20359;-76
2021/11/05 00:49:17;;;;;;;;;;;19.80;99.90;;;;;;5096151;28;19908;-76
2021/11/05 00:51:44;;;;;;;;;;;19.90;99.90;;;;;;5095872;28;19980;-75
2021/11/05 00:54:11;;;;;;;;;;;19.90;99.90;;;;;;5095623;28;20320;-76
2021/11/05 00:56:38;;;;;;;;;;;20.10;99.90;;;;;;5095473;28;19908;-76
2021/11/05 00:59:04;;;;;;;;;;;20.10;99.90;;;;;;5095790;28;20338;-76
2021/11/05 01:01:31;;;;;;;;;;;20.20;99.90;;;;;;5096054;28;19994;-76
2021/11/05 01:03:58;;;;;;;;;;;20.20;99.90;;;;;;5095611;28;19908;-76
2021/11/05 01:06:24;;;;;;;;;;;20.40;99.90;;;;;;5095811;28;19916;-76
2021/11/05 01:08:51;;;;;;;;;;;20.40;99.90;;;;;;5095372;28;19915;-76
2021/11/05 01:11:18;;;;;;;;;;;20.50;99.90;;;;;;5095392;28;19912;-76
2021/11/05 01:13:44;;;;;;;;;;;20.60;99.90;;;;;;5095607;28;19919;-76
2021/11/05 01:16:11;;;;;;;;;;;20.70;99.90;;;;;;5095515;28;20015;-76
2021/11/05 01:18:38;;;;;;;;;;;20.80;99.90;;;;;;5095507;28;20324;-76
2021/11/05 01:21:05;;;;;;;;;;;20.80;99.90;;;;;;5095497;28;19963;-76
2021/11/05 01:23:31;;;;;;;;;;;21.00;99.90;;;;;;5095537;28;19908;-76
2021/11/05 01:25:58;;;;;;;;;;;21.20;99.90;;;;;;5095150;28;20003;-77
2021/11/05 01:28:25;;;;;;;;;;;21.40;99.90;;;;;;5094988;28;20410;-76
2021/11/05 01:30:51;;;;;;;;;;;21.50;99.90;;;;;;5095079;28;19942;-75
2021/11/05 01:33:18;;;;;;;;;;;21.50;99.90;;;;;;5094968;28;19912;-76
2021/11/05 01:35:45;;;;;;;;;;;21.60;99.90;;;;;;5095216;28;19908;-76
2021/11/05 01:38:12;;;;;;;;;;;21.80;99.90;;;;;;5093285;28;19947;-77
2021/11/05 01:40:41;;;;;;;;;;;22.00;99.90;;;;;;5094946;28;19908;-76
2021/11/05 01:43:08;;;;;;;;;;;22.00;99.90;;;;;;5094903;28;19947;-76
2021/11/05 01:45:35;;;;;;;;;;;21.80;99.90;;;;;;5094926;28;19959;-76
2021/11/05 01:48:02;;;;;;;;;;;21.70;99.90;;;;;;5094798;28;19961;-77
2021/11/05 01:50:29;;;;;;;;;;;21.70;99.90;;;;;;5095275;28;20008;-76
2021/11/05 01:52:56;;;;;;;;;;;21.60;99.90;;;;;;5094473;28;20277;-75
2021/11/05 01:55:24;;;;;;;;;;;21.50;99.90;;;;;;5094766;28;20001;-76
2021/11/05 01:57:51;;;;;;;;;;;21.40;99.90;;;;;;5094631;28;19950;-76
2021/11/05 02:00:19;;;;;;;;;;;21.30;99.90;;;;;;5094241;28;20327;-76
2021/11/05 02:02:46;;;;;;;;;;;21.30;99.90;;;;;;5094301;28;19951;-76
2021/11/05 02:05:13;;;;;;;;;;;21.30;99.90;;;;;;5094281;28;19931;-76
2021/11/05 02:07:44;;;;;;;;;;;21.30;99.90;;;;;;5094427;28;19963;-76
2021/11/05 02:10:11;;;;;;;;;;;21.40;99.90;;;;;;5094363;28;20001;-76
2021/11/05 02:12:38;;;;;;;;;;;21.40;99.90;;;;;;5094341;28;20248;-76
2021/11/05 02:15:05;;;;;;;;;;;21.30;99.90;;;;;;5094519;28;19916;-77
2021/11/05 02:17:33;;;;;;;;;;;21.40;99.90;;;;;;5094577;28;19912;-76
2021/11/05 02:20:00;;;;;;;;;;;21.40;99.90;;;;;;5094043;28;19908;-76
2021/11/05 02:22:27;;;;;;;;;;;21.40;99.90;;;;;;5093960;28;19915;-76
2021/11/05 02:24:54;;;;;;;;;;;21.30;99.90;;;;;;5093014;28;19908;-76
2021/11/05 02:27:21;;;;;;;;;;;21.20;99.90;;;;;;5094032;28;19912;-77
2021/11/05 02:29:47;;;;;;;;;;;21.20;99.90;;;;;;5093963;28;19935;-76
2021/11/05 02:32:15;;;;;;;;;;;21.20;99.90;;;;;;5093873;28;19915;-76
2021/11/05 02:34:42;;;;;;;;;;;21.20;99.90;;;;;;5093987;28;19908;-77
2021/11/05 02:37:08;;;;;;;;;;;21.20;99.90;;;;;;5093920;28;19909;-76
2021/11/05 02:39:36;;;;;;;;;;;21.10;99.90;;;;;;5093138;28;19908;-75
2021/11/05 02:42:02;;;;;;;;;;;21.00;99.90;;;;;;5093366;28;19912;-74
2021/11/05 02:44:29;;;;;;;;;;;21.00;99.90;;;;;;5075498;28;19908;-76
2021/11/05 02:46:56;;;;;;;;;;;21.10;99.90;;;;;;5093590;28;19927;-75
2021/11/05 02:49:23;;;;;;;;;;;21.10;99.90;;;;;;5093456;28;19999;-76
2021/11/05 02:51:50;;;;;;;;;;;21.10;99.90;;;;;;5093389;28;19915;-75
2021/11/05 02:54:17;;;;;;;;;;;21.20;99.90;;;;;;5093030;28;19912;-75
2021/11/05 02:56:44;;;;;;;;;;;21.10;99.90;;;;;;5093390;28;19915;-74
2021/11/05 02:59:11;;;;;;;;;;;21.00;99.90;;;;;;5093496;28;20264;-75
2021/11/05 03:01:38;;;;;;;;;;;21.00;99.90;;;;;;5093451;28;20013;-75
2021/11/05 03:04:07;;;;;;;;;;;21.00;99.90;;;;;;5093034;28;20273;-75
2021/11/05 03:06:41;;;;;;;;;;;21.10;99.90;;;;;;5091931;28;19916;-75
2021/11/05 03:09:12;;;;;;;;;;;21.20;99.90;;;;;;5093041;28;19965;-75
2021/11/05 03:11:39;;;;;;;;;;;21.30;99.90;;;;;;5093052;28;19919;-75
2021/11/05 03:14:06;;;;;;;;;;;21.30;99.90;;;;;;5093150;28;19908;-75
2021/11/05 03:16:34;;;;;;;;;;;21.30;99.90;;;;;;5093140;28;19912;-75
2021/11/05 03:19:01;;;;;;;;;;;21.30;99.90;;;;;;5093211;28;19947;-76
2021/11/05 03:21:28;;;;;;;;;;;21.40;99.90;;;;;;5093012;28;19956;-76
2021/11/05 03:23:55;;;;;;;;;;;21.30;99.90;;;;;;5093109;28;19955;-75
2021/11/05 03:26:22;;;;;;;;;;;21.30;99.90;;;;;;5092722;28;20015;-75
2021/11/05 03:28:49;;;;;;;;;;;21.30;99.90;;;;;;5093290;28;19912;-76
2021/11/05 03:31:15;;;;;;;;;;;21.40;99.90;;;;;;5092976;28;20372;-75
2021/11/05 03:33:42;;;;;;;;;;;21.30;99.90;;;;;;5092901;28;20383;-75
2021/11/05 03:36:09;;;;;;;;;;;21.40;99.90;;;;;;5092642;28;19934;-76
2021/11/05 03:38:36;;;;;;;;;;;21.50;99.90;;;;;;5092838;28;19954;-77
2021/11/05 03:41:03;;;;;;;;;;;21.50;99.90;;;;;;5092756;28;19912;-75
2021/11/05 03:43:30;;;;;;;;;;;21.50;99.90;;;;;;5092739;28;19908;-75
2021/11/05 03:45:56;;;;;;;;;;;21.60;99.90;;;;;;5092470;28;19969;-76
2021/11/05 03:48:23;;;;;;;;;;;21.60;99.90;;;;;;5091628;28;19931;-76
2021/11/05 03:50:50;;;;;;;;;;;21.50;99.90;;;;;;5092528;28;19915;-75
2021/11/05 03:53:16;;;;;;;;;;;21.40;99.90;;;;;;5092611;28;19939;-75
2021/11/05 03:55:43;;;;;;;;;;;21.60;99.90;;;;;;5092572;28;19916;-75
2021/11/05 03:58:10;;;;;;;;;;;21.70;99.90;;;;;;5091028;28;19915;-75
2021/11/05 04:00:36;;;;;;;;;;;21.80;99.90;;;;;;5092398;28;20234;-76
2021/11/05 04:03:03;;;;;;;;;;;21.70;99.90;;;;;;5092527;28;19996;-75
2021/11/05 04:05:30;;;;;;;;;;;21.60;99.90;;;;;;5092752;28;20283;-75
2021/11/05 04:07:56;;;;;;;;;;;21.40;99.90;;;;;;5092528;28;19908;-75
2021/11/05 04:10:23;;;;;;;;;;;21.50;99.90;;;;;;5092489;28;20292;-75
2021/11/05 04:12:50;;;;;;;;;;;21.40;99.90;;;;;;5092417;28;19912;-75
2021/11/05 04:15:16;;;;;;;;;;;21.30;99.90;;;;;;5093526;28;19939;-75
2021/11/05 04:17:43;;;;;;;;;;;21.40;99.90;;;;;;5093320;28;20007;-75
2021/11/05 04:20:10;;;;;;;;;;;21.30;99.90;;;;;;5092915;28;20007;-75
2021/11/05 04:22:38;;;;;;;;;;;21.50;99.90;;;;;;5093046;28;19916;-75
2021/11/05 04:25:05;;;;;;;;;;;21.60;99.90;;;;;;5093036;28;19908;-75
2021/11/05 04:27:32;;;;;;;;;;;21.60;99.90;;;;;;5093491;28;19915;-75
2021/11/05 04:29:58;;;;;;;;;;;21.60;99.90;;;;;;5092656;28;19915;-75
2021/11/05 04:32:25;;;;;;;;;;;21.50;99.90;;;;;;5092824;28;19915;-75
2021/11/05 04:34:52;;;;;;;;;;;21.40;99.90;;;;;;5093013;28;20366;-75
2021/11/05 04:37:18;;;;;;;;;;;21.40;99.90;;;;;;5092313;28;20003;-75
2021/11/05 04:39:45;;;;;;;;;;;21.40;99.90;;;;;;5092798;28;20003;-75
2021/11/05 04:42:12;;;;;;;;;;;21.30;99.90;;;;;;5092919;28;19908;-75
2021/11/05 04:44:39;;;;;;;;;;;21.30;99.90;;;;;;5092760;28;19939;-75
2021/11/05 04:47:05;;;;;;;;;;;21.40;99.90;;;;;;5092826;28;19942;-75
2021/11/05 04:49:32;;;;;;;;;;;21.40;99.90;;;;;;5092661;28;19936;-75
2021/11/05 04:51:58;;;;;;;;;;;21.40;99.90;;;;;;5092476;28;20312;-75
2021/11/05 04:54:25;;;;;;;;;;;21.40;99.90;;;;;;5092617;28;19908;-75
2021/11/05 04:56:52;;;;;;;;;;;21.40;99.90;;;;;;5092852;28;19912;-75
2021/11/05 04:59:19;;;;;;;;;;;21.30;99.90;;;;;;5092797;28;19908;-75
2021/11/05 05:01:47;;;;;;;;;;;21.20;99.90;;;;;;5092645;28;19920;-75
2021/11/05 05:04:14;;;;;;;;;;;21.00;99.90;;;;;;5095058;28;19995;-75
2021/11/05 05:06:40;;;;;;;;;;;21.00;99.90;;;;;;5096201;28;19996;-75
2021/11/05 05:09:07;;;;;;;;;;;21.00;99.90;;;;;;5096996;28;19915;-75
2021/11/05 05:11:34;;;;;;;;;;;21.00;99.90;;;;;;5096282;28;19909;-75
2021/11/05 05:14:01;;;;;;;;;;;21.00;99.90;;;;;;5096809;28;19908;-75
2021/11/05 05:16:28;;;;;;;;;;;21.00;99.90;;;;;;5096573;28;19998;-75
2021/11/05 05:18:55;;;;;;;;;;;21.00;99.90;;;;;;5096153;28;19954;-75
2021/11/05 05:21:21;;;;;;;;;;;21.00;99.90;;;;;;5095998;28;19909;-75
2021/11/05 05:23:48;;;;;;;;;;;20.90;99.90;;;;;;5096192;28;19962;-75
2021/11/05 05:26:15;;;;;;;;;;;20.80;99.90;;;;;;5095231;28;19916;-75
2021/11/05 05:28:42;;;;;;;;;;;20.80;99.90;;;;;;5096304;28;19908;-75
2021/11/05 05:31:09;;;;;;;;;;;20.90;99.90;;;;;;5095884;28;19915;-75
2021/11/05 05:33:36;;;;;;;;;;;20.80;99.90;;;;;;5095609;28;19927;-75
2021/11/05 05:36:04;;;;;;;;;;;20.80;99.90;;;;;;5095268;28;19915;-75
2021/11/05 05:38:31;;;;;;;;;;;20.80;99.90;;;;;;5095491;28;19942;-75
2021/11/05 05:40:58;;;;;;;;;;;20.80;99.90;;;;;;5094566;28;19936;-75
2021/11/05 05:43:25;;;;;;;;;;;20.80;99.90;;;;;;5095938;28;19908;-75
2021/11/05 05:45:52;;;;;;;;;;;20.80;99.90;;;;;;5095819;28;20026;-75
2021/11/05 05:48:19;;;;;;;;;;;20.80;99.90;;;;;;5095362;28;19912;-75
2021/11/05 05:50:46;;;;;;;;;;;20.70;99.90;;;;;;5094651;28;19972;-75
2021/11/05 05:53:13;;;;;;;;;;;20.70;99.90;;;;;;5092833;28;19922;-75
2021/11/05 05:55:39;;;;;;;;;;;20.70;99.90;;;;;;5093070;28;19914;-75
2021/11/05 05:58:06;;;;;;;;;;;20.70;99.90;;;;;;5091198;28;19934;-76
2021/11/05 06:00:34;;;;;;;;;;;20.60;99.90;;;;;;5092270;28;20330;-75
2021/11/05 06:03:01;;;;;;;;;;;20.60;99.90;;;;;;5092574;28;19919;-75
2021/11/05 06:05:27;;;;;;;;;;;20.70;99.90;;;;;;5092421;28;19923;-75
2021/11/05 06:07:54;;;;;;;;;;;20.60;99.90;;;;;;5092654;28;19908;-75
2021/11/05 06:10:21;;;;;;;;;;;20.60;99.90;;;;;;5092247;28;19948;-75
2021/11/05 06:12:48;;;;;;;;;;;20.60;99.90;;;;;;5092637;28;19916;-75
2021/11/05 06:15:14;;;;;;;;;;;20.60;99.90;;;;;;5091727;28;19912;-75
2021/11/05 06:17:41;;;;;;;;;;;20.60;99.90;;;;;;5092775;28;19908;-75
2021/11/05 06:20:08;;;;;;;;;;;20.60;99.90;;;;;;5092931;28;20355;-75
2021/11/05 06:22:35;;;;;;;;;;;20.50;99.90;;;;;;5092351;28;19915;-75
2021/11/05 06:25:02;;;;;;;;;;;20.60;99.90;;;;;;5092450;28;19919;-75
2021/11/05 06:27:28;;;;;;;;;;;20.40;99.90;;;;;;5092427;28;19924;-75
2021/11/05 06:29:55;;;;;;;;;;;20.50;99.90;;;;;;5091953;28;20015;-75
2021/11/05 06:32:22;;;;;;;;;;;20.50;99.90;;;;;;5091653;28;19912;-75
2021/11/05 06:34:49;;;;;;;;;;;20.50;99.90;;;;;;5092612;28;19912;-75
2021/11/05 06:37:16;;;;;;;;;;;20.60;99.90;;;;;;5092198;28;20460;-75
2021/11/05 06:39:42;;;;;;;;;;;20.60;99.90;;;;;;5092646;28;19916;-75
2021/11/05 06:42:12;;;;;;;;;;;20.60;99.90;;;;;;5091683;28;20410;-76
2021/11/05 06:44:38;;;;;;;;;;;20.60;99.90;;;;;;5083531;28;19991;-75
2021/11/05 06:47:05;;;;;;;;;;;20.40;99.90;;;;;;5071535;28;19920;-75
2021/11/05 06:49:31;;;;;;;;;;;20.30;99.90;;;;;;5071556;28;19965;-75
2021/11/05 06:51:58;;;;;;;;;;;20.40;99.90;;;;;;5071235;28;19982;-75
2021/11/05 06:54:25;;;;;;;;;;;20.40;99.90;;;;;;5071954;28;19912;-75
2021/11/05 06:56:52;;;;;;;;;;;20.30;99.90;;;;;;5070668;28;19958;-75
2021/11/05 06:59:19;;;;;;;;;;;20.30;99.90;;;;;;5071074;28;19912;-75
2021/11/05 07:01:46;;;;;;;;;;;20.20;99.90;;;;;;5072155;28;19981;-75
2021/11/05 07:04:12;;;;;;;;;;;20.20;99.90;;;;;;5071112;28;20256;-75
2021/11/05 07:06:45;;;;;;;;;;;20.20;99.90;;;;;;5073436;28;19939;-75
2021/11/05 07:09:13;;;;;;;;;;;20.30;99.90;;;;;;5072386;28;19912;-75
2021/11/05 07:11:40;;;;;;;;;;;20.20;99.90;;;;;;5071207;28;20427;-75
2021/11/05 07:14:07;;;;;;;;;;;20.20;99.90;;;;;;5071895;28;19915;-75
2021/11/05 07:16:34;;;;;;;;;;;20.10;99.90;;;;;;5071765;28;20380;-76
2021/11/05 07:19:01;;;;;;;;;;;20.10;99.90;;;;;;5075355;28;20350;-76
2021/11/05 07:21:28;;;;;;;;;;;20.10;99.90;;;;;;5088195;28;19912;-76
2021/11/05 07:24:12;;;;;;;;;;;20.00;99.90;;;;;;5092462;28;20000;-76
2021/11/05 07:26:43;;;;;;;;;;;20.00;99.90;;;;;;5091988;28;19927;-77
2021/11/05 07:29:11;;;;;;;;;;;20.00;99.90;;;;;;5091852;28;19912;-76
2021/11/05 07:31:38;;;;;;;;;;;20.00;99.90;;;;;;5072900;28;19999;-76
2021/11/05 07:34:05;;;;;;;;;;;20.00;99.90;;;;;;5074184;28;19909;-76
2021/11/05 07:36:31;;;;;;;;;;;19.90;99.90;;;;;;5072054;28;19908;-76
2021/11/05 07:38:58;;;;;;;;;;;20.00;99.90;;;;;;5073846;28;19988;-76
2021/11/05 07:41:25;;;;;;;;;;;19.90;99.90;;;;;;5072205;28;20563;-76
2021/11/05 07:43:53;;;;;;;;;;;19.90;99.90;;;;;;5072787;28;20491;-76
2021/11/05 07:46:20;;;;;;;;;;;19.90;99.90;;;;;;5073266;28;19962;-76
2021/11/05 07:48:47;;;;;;;;;;;19.80;99.90;;;;;;5074207;28;19954;-76
2021/11/05 07:51:14;;;;;;;;;;;19.70;99.90;;;;;;5074125;28;19920;-76
2021/11/05 07:53:40;;;;;;;;;;;19.70;99.90;;;;;;5072832;28;20377;-76
2021/11/05 07:56:07;;;;;;;;;;;19.70;99.90;;;;;;5070975;28;20335;-76
2021/11/05 07:58:34;;;;;;;;;;;19.70;99.90;;;;;;5075533;28;19908;-76
2021/11/05 08:01:00;;;;;;;;;;;19.70;99.90;;;;;;5071401;28;20509;-75
2021/11/05 08:03:27;;;;;;;;;;;19.60;99.90;;;;;;5075114;28;19919;-76
2021/11/05 08:05:54;;;;;;;;;;;19.60;99.90;;;;;;5072766;28;19921;-76
2021/11/05 08:08:21;;;;;;;;;;;19.50;99.90;;;;;;5076743;28;19915;-76
2021/11/05 08:10:48;;;;;;;;;;;19.50;99.90;;;;;;5077165;28;19947;-76
2021/11/05 08:13:15;;;;;;;;;;;19.50;99.90;;;;;;5106109;28;19966;-76
2021/11/05 08:15:42;;;;;;;;;;;19.50;99.90;;;;;;5074711;28;19909;-76
2021/11/05 08:18:08;;;;;;;;;;;19.50;99.90;;;;;;5074262;28;19909;-76
2021/11/05 08:20:35;;;;;;;;;;;19.40;99.90;;;;;;5073698;28;19908;-76
2021/11/05 08:23:02;;;;;;;;;;;19.40;99.90;;;;;;5074000;28;19915;-76
2021/11/05 08:25:30;;;;;;;;;;;19.40;99.90;;;;;;5072312;28;19917;-76
2021/11/05 08:27:57;;;;;;;;;;;19.30;99.90;;;;;;5074538;28;20341;-76
2021/11/05 08:30:24;;;;;;;;;;;19.30;99.90;;;;;;5073989;28;19915;-76
2021/11/05 08:32:53;;;;;;;;;;;19.30;99.90;;;;;;5073577;28;19983;-76
2021/11/05 08:35:22;;;;;;;;;;;19.30;99.90;;;;;;5073423;28;19909;-76
2021/11/05 08:37:49;;;;;;;;;;;19.30;99.90;;;;;;5074003;28;20255;-76
2021/11/05 08:40:15;;;;;;;;;;;19.30;99.90;;;;;;5076973;28;19908;-76
2021/11/05 08:42:43;;;;;;;;;;;19.30;99.90;;;;;;5076124;28;19919;-76
2021/11/05 08:45:09;;;;;;;;;;;19.30;99.90;;;;;;5077588;28;20316;-76
2021/11/05 08:47:37;;;;;;;;;;;19.30;99.90;;;;;;5076759;28;20338;-76
2021/11/05 08:50:04;;;;;;;;;;;19.30;99.90;;;;;;5076060;28;19909;-76
2021/11/05 08:52:32;;;;;;;;;;;19.30;99.90;;;;;;5076273;28;19908;-76
2021/11/05 08:55:04;;;;;;;;;;;19.30;99.90;;;;;;5076327;28;19908;-76
2021/11/05 08:57:32;;;;;;;;;;;19.30;99.90;;;;;;5075594;28;19960;-76
2021/11/05 08:59:59;;;;;;;;;;;19.30;99.90;;;;;;5076163;28;19908;-76
2021/11/05 09:02:26;;;;;;;;;;;19.30;99.90;;;;;;5075936;28;19924;-76
2021/11/05 09:04:53;;;;;;;;;;;19.30;99.90;;;;;;5076420;28;20087;-76
2021/11/05 09:07:20;;;;;;;;;;;19.30;99.90;;;;;;5077431;28;19916;-76
2021/11/05 09:09:46;;;;;;;;;;;19.30;99.90;;;;;;5078024;28;19947;-76
2021/11/05 09:12:13;;;;;;;;;;;19.30;99.90;;;;;;5076528;28;19913;-77
2021/11/05 09:14:40;;;;;;;;;;;19.30;99.90;;;;;;5077851;28;19908;-75
2021/11/05 09:17:07;;;;;;;;;;;19.20;99.90;;;;;;5077421;28;19931;-76
2021/11/05 09:19:34;;;;;;;;;;;19.20;99.90;;;;;;5077144;28;19908;-76
2021/11/05 09:22:00;;;;;;;;;;;19.30;99.90;;;;;;5077104;28;19915;-76
2021/11/05 09:24:27;;;;;;;;;;;19.30;99.90;;;;;;5076489;28;19979;-76
2021/11/05 09:26:54;;;;;;;;;;;19.30;99.90;;;;;;5077764;28;20022;-76
2021/11/05 09:29:21;;;;;;;;;;;19.20;99.90;;;;;;5079545;28;19916;-76
2021/11/05 09:31:48;;;;;;;;;;;19.20;99.90;;;;;;5077050;28;19909;-76
2021/11/05 09:34:14;;;;;;;;;;;19.20;99.90;;;;;;5077478;28;19915;-76
2021/11/05 09:36:41;;;;;;;;;;;19.20;99.90;;;;;;5077049;28;19909;-76
2021/11/05 09:39:07;;;;;;;;;;;19.20;99.90;;;;;;5096702;28;19940;-76
2021/11/05 09:41:34;;;;;;;;;;;19.20;99.90;;;;;;5098635;28;20381;-76
2021/11/05 09:44:01;;;;;;;;;;;19.20;99.90;;;;;;5097821;28;19908;-76
2021/11/05 09:46:29;;;;;;;;;;;19.20;99.90;;;;;;5098418;28;19923;-76
2021/11/05 09:48:56;;;;;;;;;;;19.20;99.90;;;;;;5096795;28;19908;-76
2021/11/05 09:51:23;;;;;;;;;;;19.20;99.90;;;;;;5096854;28;20012;-76
2021/11/05 09:53:49;;;;;;;;;;;19.20;99.90;;;;;;5073774;28;19915;-76
2021/11/05 09:56:18;;;;;;;;;;;19.20;99.90;;;;;;5074523;28;19982;-77
2021/11/05 09:58:45;;;;;;;;;;;19.30;99.90;;;;;;5075389;28;19913;-77
2021/11/05 10:01:12;;;;;;;;;;;19.30;99.90;;;;;;5075047;28;19932;-77
2021/11/05 10:03:42;;;;;;;;;;;19.30;99.90;;;;;;5073733;28;20406;-77
2021/11/05 10:06:09;;;;;;;;;;;19.20;99.90;;;;;;5073987;28;20368;-77
2021/11/05 10:08:36;;;;;;;;;;;19.20;99.90;;;;;;5073353;28;19912;-77
2021/11/05 10:11:22;;;;;;;;;;;19.20;99.90;;;;;;5075217;28;19913;-76
2021/11/05 10:13:49;;;;;;;;;;;19.20;99.90;;;;;;5073805;28;20371;-77
2021/11/05 10:16:17;;;;;;;;;;;19.20;99.90;;;;;;5076533;28;20262;-77
2021/11/05 10:18:53;;;;;;;;;;;19.20;99.90;;;;;;5074192;28;20651;-77
2021/11/05 10:21:20;;;;;;;;;;;19.20;99.90;;;;;;5073442;28;19919;-76
2021/11/05 10:23:47;;;;;;;;;;;19.20;99.90;;;;;;5072995;28;19952;-77
2021/11/05 10:26:32;;;;;;;;;;;19.20;99.90;;;;;;5073897;28;20625;-77
2021/11/05 10:28:59;;;;;;;;;;;19.30;99.90;;;;;;5073294;28;19948;-77
2021/11/05 10:31:30;;;;;;;;;;;19.20;99.90;;;;;;5072680;28;19920;-76
2021/11/05 10:33:57;;;;;;;;;;;19.20;99.90;;;;;;5074295;28;19909;-76
2021/11/05 10:36:24;;;;;;;;;;;19.20;99.90;;;;;;5074541;28;19970;-75
2021/11/05 10:38:53;;;;;;;;;;;19.10;99.90;;;;;;5074200;28;20397;-75
2021/11/05 10:41:21;;;;;;;;;;;19.20;99.90;;;;;;5073622;28;20317;-75
2021/11/05 10:43:49;;;;;;;;;;;19.20;99.90;;;;;;5072863;28;20003;-75
2021/11/05 10:46:27;;;;;;;;;;;19.10;99.90;;;;;;5073901;28;19916;-75
2021/11/05 10:48:55;;;;;;;;;;;19.10;99.90;;;;;;5074279;28;20519;-76
2021/11/05 10:51:24;;;;;;;;;;;19.00;99.90;;;;;;5074008;28;19915;-76
2021/11/05 10:53:50;;;;;;;;;;;19.00;99.90;;;;;;5072419;28;19972;-75
2021/11/05 10:56:18;;;;;;;;;;;19.00;99.90;;;;;;5073940;28;19935;-75
2021/11/05 10:58:51;;;;;;;;;;;19.00;99.90;;;;;;5074036;28;19912;-75
2021/11/05 11:01:20;;;;;;;;;;;19.00;99.90;;;;;;5073304;28;19921;-76
2021/11/05 11:03:46;;;;;;;;;;;19.00;99.90;;;;;;5073365;28;19908;-75
2021/11/05 11:06:39;;;;;;;;;;;19.00;99.90;;;;;;5072435;28;19929;-75
2021/11/05 11:09:07;;;;;;;;;;;18.90;99.90;;;;;;5073318;28;19912;-75
2021/11/05 11:11:54;;;;;;;;;;;19.00;99.90;;;;;;5072654;28;19934;-75
2021/11/05 11:14:22;;;;;;;;;;;18.90;99.90;;;;;;5072299;28;19909;-75
2021/11/05 11:17:01;;;;;;;;;;;18.90;99.90;;;;;;5072592;28;19920;-75
2021/11/05 11:19:33;;;;;;;;;;;18.90;99.90;;;;;;5073080;28;19966;-75
2021/11/05 11:22:01;;;;;;;;;;;18.90;99.90;;;;;;5071271;28;19915;-75
2021/11/05 11:24:30;;;;;;;;;;;18.90;99.90;;;;;;5072642;28;19912;-75
2021/11/05 11:26:57;;;;;;;;;;;18.90;99.90;;;;;;5073220;28;19963;-75
2021/11/05 11:29:24;;;;;;;;;;;18.80;99.90;;;;;;5072828;28;19908;-75
2021/11/05 11:31:52;;;;;;;;;;;18.80;99.90;;;;;;5074080;28;19915;-75
2021/11/05 11:34:19;;;;;;;;;;;18.80;99.90;;;;;;5072405;28;19913;-75
2021/11/05 11:36:48;;;;;;;;;;;18.80;99.90;;;;;;5072552;28;20371;-76
2021/11/05 11:39:17;;;;;;;;;;;18.80;99.90;;;;;;5073536;28;19909;-76
2021/11/05 11:41:44;;;;;;;;;;;18.70;99.90;;;;;;5073685;28;19908;-75
2021/11/05 11:44:15;;;;;;;;;;;18.80;99.90;;;;;;5074381;28;19909;-75
2021/11/05 11:46:59;;;;;;;;;;;18.80;99.90;;;;;;5074416;28;19917;-75
2021/11/05 11:49:32;;;;;;;;;;;18.70;99.90;;;;;;5072964;28;19919;-75
2021/11/05 11:51:59;;;;;;;;;;;18.70;99.90;;;;;;5073554;28;19962;-75
2021/11/05 11:54:31;;;;;;;;;;;18.70;99.90;;;;;;5073832;28;19919;-75
2021/11/05 11:57:17;;;;;;;;;;;18.70;99.90;;;;;;5078805;28;19951;-76
2021/11/05 11:59:46;;;;;;;;;;;18.70;99.90;;;;;;5073681;28;19912;-76
2021/11/05 12:02:34;;;;;;;;;;;18.70;99.90;;;;;;5075170;28;19982;-76
2021/11/05 12:05:01;;;;;;;;;;;18.60;99.90;;;;;;5072480;28;19909;-75
2021/11/05 12:07:28;;;;;;;;;;;18.60;99.90;;;;;;5074183;28;20015;-74
2021/11/05 12:10:15;;;;;;;;;;;18.60;99.90;;;;;;5072838;28;19995;-75
2021/11/05 12:12:41;;;;;;;;;;;18.50;99.90;;;;;;5073428;28;19916;-75
2021/11/05 12:15:09;;;;;;;;;;;18.60;99.90;;;;;;5078927;28;20390;-74
2021/11/05 12:17:51;;;;;;;;;;;18.50;99.90;;;;;;5078483;28;19908;-75
2021/11/05 12:20:29;;;;;;;;;;;18.50;99.90;;;;;;5078698;28;20101;-74
2021/11/05 12:23:11;;;;;;;;;;;18.50;99.90;;;;;;5079197;28;19981;-75
2021/11/05 12:25:47;;;;;;;;;;;18.50;99.90;;;;;;5077648;28;19966;-75
2021/11/05 12:28:15;;;;;;;;;;;18.50;99.90;;;;;;5077089;28;20230;-75
2021/11/05 12:30:42;;;;;;;;;;;18.50;99.90;;;;;;5077320;28;19923;-76
2021/11/05 12:33:41;;;;;;;;;;;18.50;99.90;;;;;;5078063;28;19915;-75
2021/11/05 12:36:08;;;;;;;;;;;18.50;99.90;;;;;;5064321;28;20370;-76
2021/11/05 12:38:53;;;;;;;;;;;18.50;99.90;;;;;;5077622;28;19999;-76
2021/11/05 12:41:19;;;;;;;;;;;18.40;99.90;;;;;;5077321;28;19954;-76
2021/11/05 12:43:46;;;;;;;;;;;18.50;99.90;;;;;;5076690;28;19909;-75
2021/11/05 12:46:16;;;;;;;;;;;18.40;99.90;;;;;;5075524;28;19967;-75
2021/11/05 12:48:46;;;;;;;;;;;18.40;99.90;;;;;;5077632;28;19919;-76
2021/11/05 12:51:23;;;;;;;;;;;18.40;99.90;;;;;;5074622;28;20351;-75
2021/11/05 12:54:01;;;;;;;;;;;18.40;99.90;;;;;;5074508;28;19908;-76
2021/11/05 12:56:29;;;;;;;;;;;18.40;99.90;;;;;;5075007;28;20274;-75
2021/11/05 12:58:56;;;;;;;;;;;18.40;99.90;;;;;;5074600;28;19909;-75
2021/11/05 13:01:26;;;;;;;;;;;18.30;99.90;;;;;;5074248;28;19939;-75
2021/11/05 13:04:03;;;;;;;;;;;18.30;99.90;;;;;;5074449;28;19917;-76
2021/11/05 13:06:37;;;;;;;;;;;18.30;99.90;;;;;;5073799;28;19921;-76
2021/11/05 13:09:18;;;;;;;;;;;18.30;99.90;;;;;;5073918;28;20282;-75
2021/11/05 13:11:57;;;;;;;;;;;18.30;99.90;;;;;;5074705;28;20031;-75
2021/11/05 13:14:37;;;;;;;;;;;18.20;99.90;;;;;;5075015;28;19993;-75
2021/11/05 13:17:10;;;;;;;;;;;18.30;99.90;;;;;;5074742;28;19909;-75
2021/11/05 13:19:36;;;;;;;;;;;18.20;99.90;;;;;;5074240;28;19920;-75
2021/11/05 13:22:04;;;;;;;;;;;18.20;99.90;;;;;;5074109;28;20398;-75
2021/11/05 13:24:30;;;;;;;;;;;18.20;99.90;;;;;;5073257;28;20376;-75
2021/11/05 13:27:06;;;;;;;;;;;18.20;99.90;;;;;;5073940;28;19990;-75
2021/11/05 13:29:33;;;;;;;;;;;18.20;99.90;;;;;;5073761;28;19926;-75
2021/11/05 13:32:14;;;;;;;;;;;18.20;99.90;;;;;;5074213;28;19913;-75
2021/11/05 13:34:40;;;;;;;;;;;18.20;99.90;;;;;;5074493;28;19916;-76
2021/11/05 13:37:07;;;;;;;;;;;18.20;99.90;;;;;;5106939;28;19916;-75
2021/11/05 13:39:34;;;;;;;;;;;18.20;99.90;;;;;;5074255;28;20009;-75
2021/11/05 13:42:09;;;;;;;;;;;18.10;99.90;;;;;;5073656;28;19913;-76
2021/11/05 13:44:36;;;;;;;;;;;18.10;99.90;;;;;;5074863;28;19908;-76
2021/11/05 13:47:12;;;;;;;;;;;18.10;99.90;;;;;;5073980;28;19920;-75
2021/11/05 13:49:39;;;;;;;;;;;18.10;99.90;;;;;;5074207;28;19999;-75
2021/11/05 13:52:09;;;;;;;;;;;18.00;99.90;;;;;;5073911;28;20003;-75
2021/11/05 13:54:43;;;;;;;;;;;18.00;99.90;;;;;;5073757;28;20003;-75
2021/11/05 13:57:14;;;;;;;;;;;18.00;99.90;;;;;;5074230;28;19920;-75
2021/11/05 13:59:41;;;;;;;;;;;17.90;99.90;;;;;;5073734;28;19915;-75
2021/11/05 14:02:08;;;;;;;;;;;17.90;99.90;;;;;;5073605;28;19928;-75
2021/11/05 14:04:35;;;;;;;;;;;17.90;99.90;;;;;;5074913;28;19909;-75
2021/11/05 14:07:08;;;;;;;;;;;17.90;99.90;;;;;;5073343;28;20031;-75
2021/11/05 14:09:35;;;;;;;;;;;17.90;99.90;;;;;;5073358;28;20256;-76
2021/11/05 14:12:04;;;;;;;;;;;17.90;99.90;;;;;;5072019;28;19938;-75
2021/11/05 14:14:33;;;;;;;;;;;17.90;99.90;;;;;;5072300;28;19913;-75
2021/11/05 14:17:11;;;;;;;;;;;17.90;99.90;;;;;;5072435;28;19915;-75
2021/11/05 14:19:38;;;;;;;;;;;17.90;99.90;;;;;;5072116;28;20377;-75
2021/11/05 14:22:09;;;;;;;;;;;17.90;99.90;;;;;;5072004;28;20968;-75